createdAt,value
2018-12-30T00:01:33.714Z,6.90
2018-12-30T00:04:15.133Z,7.00
2018-12-30T00:06:56.753Z,7.00
2018-12-30T00:09:37.237Z,7.00
2018-12-30T00:12:18.066Z,7.00
2018-12-30T00:14:59.329Z,7.00
2018-12-30T00:17:40.315Z,6.90
2018-12-30T00:20:21.765Z,7.00
2018-12-30T00:23:02.945Z,6.90
2018-12-30T00:25:44.382Z,6.90
2018-12-30T00:28:25.727Z,6.90
2018-12-30T00:31:06.495Z,6.90
2018-12-30T00:33:48.038Z,6.80
2018-12-30T00:36:29.683Z,6.80
2018-12-30T00:39:10.713Z,6.80
2018-12-30T00:41:52.108Z,6.80
2018-12-30T00:44:32.805Z,6.90
2018-12-30T00:47:14.110Z,6.80
2018-12-30T00:49:54.733Z,6.80
2018-12-30T00:52:35.890Z,6.70
2018-12-30T00:55:16.537Z,6.80
2018-12-30T00:57:57.277Z,6.70
2018-12-30T01:00:37.822Z,6.70
2018-12-30T01:03:19.360Z,6.70
2018-12-30T01:06:00.618Z,6.70
2018-12-30T01:08:41.153Z,6.70
2018-12-30T01:11:22.649Z,6.70
2018-12-30T01:14:04.074Z,6.70
2018-12-30T01:16:45.534Z,6.70
2018-12-30T01:19:26.764Z,6.70
2018-12-30T01:22:08.002Z,6.70
2018-12-30T01:24:49.212Z,6.70
2018-12-30T01:27:30.447Z,6.70
2018-12-30T01:30:11.427Z,6.70
2018-12-30T01:32:52.671Z,6.70
2018-12-30T01:35:33.280Z,6.70
2018-12-30T01:38:14.236Z,6.70
2018-12-30T01:40:55.790Z,6.70
2018-12-30T01:43:37.401Z,6.70
2018-12-30T01:46:18.465Z,6.70
2018-12-30T01:48:59.069Z,6.70
2018-12-30T01:51:40.391Z,6.70
2018-12-30T01:54:21.021Z,6.70
2018-12-30T01:57:01.695Z,6.60
2018-12-30T02:02:25.965Z,6.60
2018-12-30T02:05:06.510Z,6.60
2018-12-30T02:07:47.549Z,6.50
2018-12-30T02:10:28.998Z,6.60
2018-12-30T02:13:09.553Z,6.60
2018-12-30T02:15:50.789Z,6.50
2018-12-30T02:18:32.270Z,6.60
2018-12-30T02:21:13.285Z,6.50
2018-12-30T02:23:54.266Z,6.50
2018-12-30T02:26:35.418Z,6.50
2018-12-30T02:29:16.815Z,6.40
2018-12-30T02:31:57.723Z,6.50
2018-12-30T02:34:38.830Z,6.50
2018-12-30T02:37:18.164Z,6.50
2018-12-30T02:40:06.401Z,6.50
2018-12-30T02:42:54.770Z,6.50
2018-12-30T02:45:43.089Z,6.50
2018-12-30T02:48:31.498Z,6.50
2018-12-30T02:51:19.819Z,6.40
2018-12-30T02:54:08.241Z,6.40
2018-12-30T02:56:56.546Z,6.40
2018-12-30T02:59:44.823Z,6.40
2018-12-30T03:02:33.160Z,6.40
2018-12-30T03:05:21.413Z,6.40
2018-12-30T03:08:09.809Z,6.40
2018-12-30T03:10:58.249Z,6.30
2018-12-30T03:13:46.588Z,6.30
2018-12-30T03:16:35.041Z,6.30
2018-12-30T03:19:23.381Z,6.30
2018-12-30T03:22:11.709Z,6.40
2018-12-30T03:25:00.033Z,6.40
2018-12-30T03:28:07.475Z,6.40
2018-12-30T03:30:55.804Z,6.30
2018-12-30T03:33:38.989Z,6.30
2018-12-30T03:36:20.285Z,6.30
2018-12-30T03:39:00.864Z,6.30
2018-12-30T03:41:41.628Z,6.30
2018-12-30T03:44:22.927Z,6.20
2018-12-30T03:47:03.729Z,6.20
2018-12-30T03:49:44.971Z,6.20
2018-12-30T03:52:26.119Z,6.30
2018-12-30T03:55:07.235Z,6.20
2018-12-30T03:57:48.628Z,6.30
2018-12-30T04:00:30.058Z,6.30
2018-12-30T04:03:12.960Z,6.30
2018-12-30T04:05:53.806Z,6.30
2018-12-30T04:08:34.859Z,6.20
2018-12-30T04:11:04.233Z,6.20
2018-12-30T04:13:52.542Z,6.20
2018-12-30T04:16:40.873Z,6.20
2018-12-30T04:19:29.434Z,6.10
2018-12-30T04:22:17.770Z,6.10
2018-12-30T04:25:06.020Z,6.10
2018-12-30T04:27:54.291Z,6.10
2018-12-30T04:30:23.497Z,6.10
2018-12-30T04:36:23.413Z,6.10
2018-12-30T04:39:04.594Z,6.10
2018-12-30T04:41:45.262Z,6.10
2018-12-30T04:44:25.853Z,6.10
2018-12-30T04:47:06.515Z,6.10
2018-12-30T04:49:46.960Z,6.10
2018-12-30T04:52:27.623Z,6.10
2018-12-30T04:55:08.610Z,6.10
2018-12-30T04:57:49.403Z,6.10
2018-12-30T05:00:30.497Z,6.00
2018-12-30T05:03:11.597Z,6.00
2018-12-30T05:05:52.666Z,6.00
2018-12-30T05:08:34.080Z,6.00
2018-12-30T05:13:57.569Z,6.10
2018-12-30T05:16:38.478Z,6.10
2018-12-30T05:19:18.931Z,6.10
2018-12-30T05:21:59.710Z,6.00
2018-12-30T05:24:40.622Z,6.00
2018-12-30T05:27:21.495Z,6.00
2018-12-30T05:30:01.998Z,6.00
2018-12-30T05:32:43.170Z,6.00
2018-12-30T05:35:23.696Z,6.00
2018-12-30T05:38:04.973Z,6.00
2018-12-30T05:40:46.062Z,6.00
2018-12-30T05:43:26.721Z,6.00
2018-12-30T05:46:07.201Z,6.00
2018-12-30T05:48:48.499Z,6.00
2018-12-30T05:51:29.021Z,6.00
2018-12-30T05:54:10.277Z,6.00
2018-12-30T05:56:51.626Z,6.00
2018-12-30T05:59:32.620Z,6.00
2018-12-30T06:02:13.544Z,6.00
2018-12-30T06:04:54.940Z,6.00
2018-12-30T06:07:35.918Z,6.00
2018-12-30T06:10:16.438Z,6.00
2018-12-30T06:12:56.906Z,6.00
2018-12-30T06:15:38.114Z,6.10
2018-12-30T06:18:18.925Z,6.10
2018-12-30T06:20:59.438Z,6.00
2018-12-30T06:23:39.996Z,6.10
2018-12-30T06:26:20.573Z,6.10
2018-12-30T06:29:01.596Z,6.00
2018-12-30T06:31:42.622Z,6.00
2018-12-30T06:34:23.905Z,6.00
2018-12-30T06:37:05.434Z,6.00
2018-12-30T06:39:46.608Z,6.00
2018-12-30T06:42:46.029Z,6.00
2018-12-30T06:45:27.509Z,6.00
2018-12-30T06:48:08.428Z,6.10
2018-12-30T06:50:49.553Z,6.10
2018-12-30T06:53:30.229Z,6.10
2018-12-30T06:56:11.601Z,6.10
2018-12-30T06:58:52.452Z,6.00
2018-12-30T07:01:33.040Z,6.00
2018-12-30T07:04:13.557Z,6.00
2018-12-30T07:06:54.337Z,6.00
2018-12-30T07:09:35.224Z,6.00
2018-12-30T07:12:15.897Z,5.90
2018-12-30T07:14:57.274Z,5.90
2018-12-30T07:17:38.558Z,5.90
2018-12-30T07:20:19.094Z,6.00
2018-12-30T07:23:05.838Z,5.90
2018-12-30T07:25:42.501Z,5.90
2018-12-30T07:28:23.135Z,5.90
2018-12-30T07:31:05.154Z,6.00
2018-12-30T07:33:46.381Z,6.00
2018-12-30T07:36:27.537Z,6.00
2018-12-30T07:39:08.507Z,6.00
2018-12-30T07:41:49.590Z,6.00
2018-12-30T07:44:29.032Z,6.00
2018-12-30T07:47:17.355Z,6.00
2018-12-30T07:50:06.071Z,6.00
2018-12-30T07:52:54.446Z,6.00
2018-12-30T07:55:42.886Z,6.00
2018-12-30T07:58:31.197Z,6.10
2018-12-30T08:01:19.530Z,6.10
2018-12-30T08:04:07.865Z,6.10
2018-12-30T08:06:56.188Z,6.10
2018-12-30T08:09:44.525Z,6.20
2018-12-30T08:12:33.343Z,6.20
2018-12-30T08:15:21.681Z,6.30
2018-12-30T08:18:09.998Z,6.30
2018-12-30T08:20:58.355Z,6.40
2018-12-30T08:23:46.690Z,6.40
2018-12-30T08:26:35.029Z,6.50
2018-12-30T08:29:23.778Z,6.30
2018-12-30T08:32:12.111Z,6.40
2018-12-30T08:34:53.091Z,6.40
2018-12-30T08:37:34.610Z,6.50
2018-12-30T08:40:16.017Z,6.50
2018-12-30T08:42:57.133Z,6.50
2018-12-30T08:45:38.465Z,6.50
2018-12-30T08:48:19.948Z,6.40
2018-12-30T08:51:00.804Z,6.40
2018-12-30T08:53:42.128Z,6.40
2018-12-30T08:56:21.500Z,6.40
2018-12-30T08:59:10.109Z,6.40
2018-12-30T09:01:58.779Z,6.40
2018-12-30T09:04:47.833Z,6.30
2018-12-30T09:07:36.165Z,6.30
2018-12-30T09:10:24.560Z,6.30
2018-12-30T09:13:12.922Z,6.30
2018-12-30T09:16:01.463Z,6.40
2018-12-30T09:18:49.792Z,6.40
2018-12-30T09:21:58.925Z,6.50
2018-12-30T09:24:47.248Z,6.40
2018-12-30T09:27:35.940Z,6.50
2018-12-30T09:30:24.271Z,6.60
2018-12-30T09:33:04.834Z,6.60
2018-12-30T09:35:45.670Z,6.60
2018-12-30T09:38:27.113Z,6.50
2018-12-30T09:41:08.456Z,6.50
2018-12-30T09:43:49.062Z,6.40
2018-12-30T09:49:12.138Z,6.40
2018-12-30T09:51:54.090Z,6.50
2018-12-30T09:54:34.998Z,6.50
2018-12-30T09:57:16.173Z,6.60
2018-12-30T09:59:57.130Z,6.80
2018-12-30T10:02:38.212Z,6.80
2018-12-30T10:05:18.804Z,6.90
2018-12-30T10:07:59.665Z,6.90
2018-12-30T10:10:41.122Z,6.90
2018-12-30T10:13:23.829Z,6.80
2018-12-30T10:16:05.068Z,6.80
2018-12-30T10:18:45.674Z,6.80
2018-12-30T10:21:26.841Z,6.80
2018-12-30T10:24:07.961Z,6.90
2018-12-30T10:26:49.268Z,6.90
2018-12-30T10:29:30.017Z,6.90
2018-12-30T10:32:10.938Z,7.00
2018-12-30T10:34:52.044Z,7.00
2018-12-30T10:37:32.505Z,6.80
2018-12-30T10:40:13.223Z,6.70
2018-12-30T10:42:53.804Z,6.70
2018-12-30T10:45:35.277Z,6.80
2018-12-30T10:48:15.762Z,6.70
2018-12-30T10:50:57.201Z,6.80
2018-12-30T10:53:38.558Z,6.80
2018-12-30T10:56:07.985Z,6.80
2018-12-30T10:58:37.137Z,6.80
2018-12-30T11:01:06.399Z,6.80
2018-12-30T11:03:35.557Z,6.80
2018-12-30T11:06:04.737Z,7.00
2018-12-30T11:08:33.976Z,6.90
2018-12-30T11:11:03.236Z,7.00
2018-12-30T11:13:32.491Z,7.10
2018-12-30T11:16:01.661Z,7.00
2018-12-30T11:18:30.959Z,7.10
2018-12-30T11:21:00.269Z,7.20
2018-12-30T11:23:29.756Z,7.20
2018-12-30T11:25:59.013Z,7.20
2018-12-30T11:28:28.161Z,7.20
2018-12-30T11:30:57.406Z,7.20
2018-12-30T11:33:26.597Z,7.20
2018-12-30T11:35:55.844Z,7.30
2018-12-30T11:38:25.198Z,7.20
2018-12-30T11:40:54.349Z,7.20
2018-12-30T11:43:23.523Z,7.30
2018-12-30T11:45:53.103Z,7.50
2018-12-30T11:48:22.287Z,7.40
2018-12-30T11:50:51.440Z,7.50
2018-12-30T11:53:20.722Z,7.60
2018-12-30T11:55:49.873Z,7.70
2018-12-30T11:58:19.063Z,7.70
2018-12-30T12:00:48.305Z,7.70
2018-12-30T12:03:17.556Z,7.50
2018-12-30T12:05:46.713Z,7.50
2018-12-30T12:08:15.964Z,7.60
2018-12-30T12:10:45.196Z,7.60
2018-12-30T12:13:14.447Z,7.70
2018-12-30T12:15:43.609Z,7.60
2018-12-30T12:18:12.774Z,7.40
2018-12-30T12:20:41.971Z,7.40
2018-12-30T12:23:11.189Z,7.30
2018-12-30T12:25:40.706Z,7.40
2018-12-30T12:28:09.960Z,7.30
2018-12-30T12:30:39.189Z,7.20
2018-12-30T12:33:08.415Z,7.20
2018-12-30T12:35:37.601Z,7.40
2018-12-30T12:38:06.770Z,7.40
2018-12-30T12:40:36.045Z,7.50
2018-12-30T12:43:05.458Z,7.40
2018-12-30T12:45:34.646Z,7.40
2018-12-30T12:48:03.873Z,7.40
2018-12-30T12:50:33.049Z,7.50
2018-12-30T12:53:02.324Z,7.50
2018-12-30T12:55:31.648Z,7.50
2018-12-30T12:58:00.880Z,7.50
2018-12-30T13:00:30.072Z,7.50
2018-12-30T13:02:59.561Z,7.40
2018-12-30T13:05:28.820Z,7.40
2018-12-30T13:07:58.009Z,7.40
2018-12-30T13:10:27.177Z,7.40
2018-12-30T13:12:56.413Z,7.30
2018-12-30T13:15:25.603Z,7.30
2018-12-30T13:17:54.749Z,7.30
2018-12-30T13:20:23.929Z,7.30
2018-12-30T13:22:53.163Z,7.30
2018-12-30T13:25:22.398Z,7.20
2018-12-30T13:27:51.737Z,7.30
2018-12-30T13:30:20.971Z,7.20
2018-12-30T13:32:50.150Z,7.30
2018-12-30T13:35:19.326Z,7.30
2018-12-30T13:37:48.569Z,7.20
2018-12-30T13:40:17.709Z,7.30
2018-12-30T13:42:47.023Z,7.30
2018-12-30T13:45:16.297Z,7.20
2018-12-30T13:47:45.481Z,7.30
2018-12-30T13:50:14.642Z,7.20
2018-12-30T13:52:43.847Z,7.30
2018-12-30T13:55:13.082Z,7.20
2018-12-30T13:57:42.269Z,7.20
2018-12-30T14:00:11.425Z,7.30
2018-12-30T14:02:40.925Z,7.30
2018-12-30T14:05:10.290Z,7.30
2018-12-30T14:07:39.723Z,7.30
2018-12-30T14:10:09.793Z,7.30
2018-12-30T14:12:39.209Z,7.30
2018-12-30T14:15:08.445Z,7.30
2018-12-30T14:17:37.618Z,7.30
2018-12-30T14:20:07.366Z,7.20
2018-12-30T14:22:36.599Z,7.20
2018-12-30T14:25:06.130Z,7.20
2018-12-30T14:27:35.432Z,7.20
2018-12-30T14:30:08.067Z,7.10
2018-12-30T14:32:37.301Z,7.10
2018-12-30T14:35:06.689Z,7.10
2018-12-30T14:37:35.861Z,7.10
2018-12-30T14:40:05.144Z,7.10
2018-12-30T14:42:34.620Z,7.10
2018-12-30T14:45:03.865Z,7.00
2018-12-30T14:47:33.022Z,7.00
2018-12-30T14:50:02.293Z,7.00
2018-12-30T14:52:31.453Z,6.90
2018-12-30T14:55:03.694Z,6.80
2018-12-30T14:57:31.564Z,6.80
2018-12-30T15:00:00.835Z,6.80
2018-12-30T15:02:30.093Z,6.90
2018-12-30T15:04:59.236Z,6.90
2018-12-30T15:07:28.486Z,6.80
2018-12-30T15:09:57.644Z,6.80
2018-12-30T15:12:27.142Z,6.70
2018-12-30T15:14:56.385Z,6.70
2018-12-30T15:17:25.653Z,6.70
2018-12-30T15:19:55.265Z,6.60
2018-12-30T15:22:24.526Z,6.60
2018-12-30T15:24:53.685Z,6.60
2018-12-30T15:27:22.939Z,6.60
2018-12-30T15:29:52.180Z,6.50
2018-12-30T15:32:21.737Z,6.50
2018-12-30T15:34:50.914Z,6.50
2018-12-30T15:37:20.186Z,6.50
2018-12-30T15:39:49.657Z,6.40
2018-12-30T15:42:19.226Z,6.50
2018-12-30T15:44:48.748Z,6.50
2018-12-30T15:47:18.310Z,6.40
2018-12-30T15:49:47.534Z,6.40
2018-12-30T15:52:16.708Z,6.40
2018-12-30T15:54:45.857Z,6.40
2018-12-30T15:57:15.399Z,6.40
2018-12-30T15:59:44.903Z,6.40
2018-12-30T16:02:14.098Z,6.40
2018-12-30T16:04:43.656Z,6.40
2018-12-30T16:07:12.877Z,6.40
2018-12-30T16:09:42.054Z,6.30
2018-12-30T16:12:11.268Z,6.40
2018-12-30T16:14:40.445Z,6.40
2018-12-30T16:17:09.653Z,6.30
2018-12-30T16:19:38.848Z,6.30
2018-12-30T16:22:08.090Z,6.40
2018-12-30T16:24:37.252Z,6.40
2018-12-30T16:27:06.415Z,6.40
2018-12-30T16:29:35.616Z,6.40
2018-12-30T16:32:04.786Z,6.30
2018-12-30T16:34:34.217Z,6.40
2018-12-30T16:37:03.501Z,6.40
2018-12-30T16:39:32.677Z,6.40
2018-12-30T16:42:01.910Z,6.50
2018-12-30T16:44:31.074Z,6.50
2018-12-30T16:47:02.004Z,6.40
2018-12-30T16:49:31.298Z,6.40
2018-12-30T16:52:00.454Z,6.40
2018-12-30T16:54:29.622Z,6.50
2018-12-30T16:56:58.775Z,6.50
2018-12-30T16:59:28.017Z,6.50
2018-12-30T17:01:57.456Z,6.50
2018-12-30T17:04:28.265Z,6.50
2018-12-30T17:06:57.443Z,6.40
2018-12-30T17:09:26.753Z,6.40
2018-12-30T17:11:55.941Z,6.40
2018-12-30T17:14:25.496Z,6.50
2018-12-30T17:16:54.683Z,6.60
2018-12-30T17:19:23.906Z,6.50
2018-12-30T17:21:53.093Z,6.60
2018-12-30T17:24:22.351Z,6.60
2018-12-30T17:26:51.524Z,6.60
2018-12-30T17:29:21.118Z,6.70
2018-12-30T17:31:50.296Z,6.60
2018-12-30T17:34:19.561Z,6.60
2018-12-30T17:36:48.753Z,6.60
2018-12-30T17:39:17.997Z,6.70
2018-12-30T17:41:47.158Z,6.70
2018-12-30T17:44:19.312Z,6.60
2018-12-30T17:46:48.457Z,6.70
2018-12-30T17:49:17.766Z,6.70
2018-12-30T17:51:46.928Z,6.70
2018-12-30T17:54:16.179Z,6.70
2018-12-30T17:56:45.341Z,6.70
2018-12-30T17:59:14.529Z,6.80
2018-12-30T18:01:44.030Z,6.80
2018-12-30T18:04:13.315Z,6.80
2018-12-30T18:06:43.012Z,6.80
2018-12-30T18:09:12.311Z,6.80
2018-12-30T18:11:41.721Z,6.70
2018-12-30T18:14:10.891Z,6.80
2018-12-30T18:16:40.142Z,6.80
2018-12-30T18:19:09.423Z,6.80
2018-12-30T18:21:38.664Z,6.90
2018-12-30T18:24:07.880Z,6.90
2018-12-30T18:26:38.024Z,6.90
2018-12-30T18:29:07.402Z,6.90
2018-12-30T18:31:36.630Z,6.90
2018-12-30T18:34:06.158Z,6.90
2018-12-30T18:36:35.717Z,6.90
2018-12-30T18:39:07.168Z,6.90
2018-12-30T18:41:36.405Z,6.80
2018-12-30T18:44:05.636Z,6.80
2018-12-30T18:46:34.885Z,6.90
2018-12-30T18:49:04.080Z,6.90
2018-12-30T18:51:33.266Z,6.90
2018-12-30T18:54:02.670Z,6.90
2018-12-30T18:56:32.257Z,6.90
2018-12-30T18:59:01.488Z,6.90
2018-12-30T19:01:30.720Z,6.90
2018-12-30T19:03:59.890Z,6.90
2018-12-30T19:06:29.124Z,6.90
2018-12-30T19:08:58.294Z,6.90
2018-12-30T19:11:28.010Z,6.80
2018-12-30T19:13:57.274Z,6.70
2018-12-30T19:16:26.717Z,6.70
2018-12-30T19:18:55.893Z,6.70
2018-12-30T19:21:25.061Z,6.70
2018-12-30T19:23:54.217Z,6.70
2018-12-30T19:26:23.537Z,6.70
2018-12-30T19:28:53.044Z,6.70
2018-12-30T19:31:22.734Z,6.80
2018-12-30T19:33:51.917Z,6.80
2018-12-30T19:36:21.258Z,6.70
2018-12-30T19:38:50.504Z,6.70
2018-12-30T19:41:20.075Z,6.80
2018-12-30T19:43:49.257Z,6.80
2018-12-30T19:46:18.482Z,6.90
2018-12-30T19:48:48.149Z,7.00
2018-12-30T19:51:17.307Z,7.00
2018-12-30T19:53:46.882Z,7.00
2018-12-30T19:56:21.849Z,7.00
2018-12-30T19:58:47.259Z,7.00
2018-12-30T20:01:16.418Z,6.90
2018-12-30T20:03:45.902Z,7.00
2018-12-30T20:06:15.134Z,7.10
2018-12-30T20:08:44.313Z,7.00
2018-12-30T20:11:13.497Z,6.90
2018-12-30T20:13:42.761Z,7.00
2018-12-30T20:16:12.494Z,7.10
2018-12-30T20:18:41.754Z,7.00
2018-12-30T20:21:10.943Z,7.00
2018-12-30T20:23:40.114Z,6.90
2018-12-30T20:26:09.341Z,6.90
2018-12-30T20:28:38.495Z,7.00
2018-12-30T20:31:07.695Z,7.00
2018-12-30T20:33:36.978Z,7.10
2018-12-30T20:36:07.840Z,7.20
2018-12-30T20:38:37.073Z,7.20
2018-12-30T20:41:06.241Z,7.30
2018-12-30T20:43:35.726Z,7.30
2018-12-30T20:46:04.965Z,7.20
2018-12-30T20:48:34.453Z,7.20
2018-12-30T20:51:03.960Z,7.20
2018-12-30T20:53:33.193Z,7.20
2018-12-30T20:56:02.513Z,7.20
2018-12-30T20:58:31.946Z,7.20
2018-12-30T21:01:01.117Z,7.30
2018-12-30T21:03:30.279Z,7.30
2018-12-30T21:05:59.461Z,7.30
2018-12-30T21:08:28.615Z,7.20
2018-12-30T21:10:57.809Z,7.30
2018-12-30T21:13:27.063Z,7.30
2018-12-30T21:15:56.333Z,7.20
2018-12-30T21:18:25.596Z,7.20
2018-12-30T21:20:54.802Z,7.30
2018-12-30T21:23:23.951Z,7.30
2018-12-30T21:25:53.114Z,7.40
2018-12-30T21:28:22.354Z,7.30
2018-12-30T21:30:51.520Z,7.30
2018-12-30T21:33:21.118Z,7.40
2018-12-30T21:35:50.265Z,7.40
2018-12-30T21:38:19.459Z,7.50
2018-12-30T21:40:48.635Z,7.50
2018-12-30T21:43:17.878Z,7.50
2018-12-30T21:45:47.029Z,7.50
2018-12-30T21:48:16.222Z,7.60
2018-12-30T21:50:45.452Z,7.50
2018-12-30T21:53:14.652Z,7.40
2018-12-30T21:55:43.865Z,7.40
2018-12-30T21:58:13.037Z,7.50
2018-12-30T22:00:42.277Z,7.60
2018-12-30T22:03:13.012Z,7.60
2018-12-30T22:05:42.241Z,7.60
2018-12-30T22:08:11.558Z,7.60
2018-12-30T22:10:40.794Z,7.60
2018-12-30T22:13:10.056Z,7.70
2018-12-30T22:15:39.273Z,7.70
2018-12-30T22:18:08.513Z,7.70
2018-12-30T22:20:38.036Z,7.60
2018-12-30T22:23:07.227Z,7.50
2018-12-30T22:25:36.410Z,7.60
2018-12-30T22:28:05.673Z,7.60
2018-12-30T22:30:34.832Z,7.70
2018-12-30T22:33:04.027Z,7.70
2018-12-30T22:35:33.329Z,7.70
2018-12-30T22:38:02.532Z,7.70
2018-12-30T22:40:31.804Z,7.70
2018-12-30T22:43:01.353Z,7.70
2018-12-30T22:45:30.638Z,7.70
2018-12-30T22:47:59.919Z,7.70
2018-12-30T22:50:29.088Z,7.70
2018-12-30T22:52:58.340Z,7.80
2018-12-30T22:55:27.606Z,7.80
2018-12-30T22:57:59.688Z,7.80
2018-12-30T23:00:53.798Z,7.80
2018-12-30T23:03:22.981Z,7.80
2018-12-30T23:05:52.237Z,7.80
2018-12-30T23:08:21.372Z,7.90
2018-12-30T23:10:53.703Z,7.90
2018-12-30T23:13:22.973Z,7.90
2018-12-30T23:15:52.491Z,7.90
2018-12-30T23:18:21.717Z,7.90
2018-12-30T23:20:50.873Z,7.90
2018-12-30T23:23:20.122Z,7.80
2018-12-30T23:25:49.298Z,7.80
2018-12-30T23:28:18.480Z,7.90
2018-12-30T23:30:47.701Z,7.90
2018-12-30T23:33:16.860Z,7.90
2018-12-30T23:35:46.016Z,8.00
2018-12-30T23:38:15.178Z,8.00
2018-12-30T23:40:44.665Z,8.00
2018-12-30T23:43:13.828Z,8.00
2018-12-30T23:45:43.234Z,7.90
2018-12-30T23:48:12.732Z,7.80
2018-12-30T23:50:42.084Z,7.80
2018-12-30T23:53:11.325Z,7.90
2018-12-30T23:55:40.474Z,8.00
2018-12-30T23:58:09.637Z,8.00
